札幌/千歳 の空港の天気 - METARとTAF

新千歳空港 ( RJCC / CTS ) - 北海道千歳市 (札幌市近郊)
飛行場実況気象(Metar)
観測時間02/21 00:00 JST (02/20 15:00 UTC)
風向・風速北 12m/s 瞬間風速18m/s
視程10km以上
天気現象弱いしゅう雪
少しの雲 雲底高度 460m
全天の4割程度の雲 雲底高度 1220m
全天の8割程度の雲 雲底高度 3050m
気温-6℃
湿度79%
気圧1000hPa
METARRJCC 201500Z 35024G35KT 9999 -SHSN FEW015 SCT040 BKN100 M06/M09 Q1000 RMK 1ST015 3CU040 7AC100 A2953
過去の天気等 Google飛行場航空写真 Wunderground天気予報

過去48時間のMETAR

飛行場予報(TAF)
発表時間: 2/20 20:05 JST (2/20 11:05 UTC)
予報対象時間: 20日21時 JST ~ 22日3時 JST
風向・風速北 11m/s 瞬間風速 16m/s
視程10km以上
少しの雲 雲底高度 300m
全天の8割程度の雲 雲底高度 610m
20日21時 JST ~ 20日23時 JST に一時的に
視程2,000m
天気現象弱いしゅう雪
21日7時 JST ~ 21日12時 JST に一時的に
視程1,500m
天気現象弱いしゅう雪 高い地吹雪
少しの雲 雲底高度 150m
全天の8割程度の雲 雲底高度 240m
21日12時 JST ~ 21日15時 JST に一時的に
視程2,000m
天気現象弱いしゅう雪 高い地吹雪
21日18時 JST ~ 21日21時 JST に徐々に
風向・風速西北西 4m/s
TAF RJCC 201105Z 2012/2118 35022G32KT 9999 FEW010 BKN020
TEMPO 2012/2014 2000 -SHSN
TEMPO 2022/2103 1500 -SHSN BLSN FEW005 BKN008
TEMPO 2103/2106 2000 -SHSN BLSN
BECMG 2109/2112 29007KT
日本の空港のMETAR・TAFへのリンク

RJTT 東京国際空港
RJAA 新東京国際空港
RJBB 関西国際空港
RJOO 大阪空港
RJGG 中部国際空港
RJCC 新千歳空港
RJFF 福岡空港
ROAH 那覇空港


RJEC 旭川空港
RJCH 函館空港
RJCK 釧路空港
RJCM 女満別空港
RJCB 帯広空港
RJSA 青森空港
RJSS 仙台空港
RJSK 秋田空港
RJSF 福島空港
RJAH 茨城空港
RJSN 新潟空港
RJNT 富山空港
RJNK 小松飛行場
RJNS 静岡空港
RJOH 美保飛行場
RJOC 出雲空港
RJOB 岡山空港
RJOA 広島空港
RJOI 岩国飛行場
RJOT 高松空港
RJOM 松山空港
RJOK 高知空港
RJFR 北九州空港
RJFT 熊本空港
RJFU 長崎空港
RJFS 佐賀空港
RJFO 大分空港
RJFM 宮崎空港
RJFK 鹿児島空港
ROIG 石垣島空港
RJTY 横田飛行場
ROTM 普天間飛行場
RODN 嘉手納飛行場